sensor_id;sensor_type;location;lat;lon;timestamp;pressure;altitude;pressure_sealevel;temperature;humidity
57574;BME280;63722;48.858;21.906;2023-03-29T00:01:41;99020.44;;;23.97;34.50
57574;BME280;63722;48.858;21.906;2023-03-29T00:04:07;99012.97;;;23.99;34.42
57574;BME280;63722;48.858;21.906;2023-03-29T00:06:34;99009.75;;;23.97;34.60
57574;BME280;63722;48.858;21.906;2023-03-29T00:08:59;99009.75;;;23.97;34.43
57574;BME280;63722;48.858;21.906;2023-03-29T00:11:28;99006.00;;;23.98;34.45
57574;BME280;63722;48.858;21.906;2023-03-29T00:13:54;99008.94;;;23.97;34.44
57574;BME280;63722;48.858;21.906;2023-03-29T00:16:20;99008.94;;;23.97;34.41
57574;BME280;63722;48.858;21.906;2023-03-29T00:18:45;99009.75;;;23.97;34.42
57574;BME280;63722;48.858;21.906;2023-03-29T00:21:11;99010.56;;;23.98;34.53
57574;BME280;63722;48.858;21.906;2023-03-29T00:23:36;99014.84;;;23.99;34.47
57574;BME280;63722;48.858;21.906;2023-03-29T00:26:02;99012.41;;;23.97;34.47
57574;BME280;63722;48.858;21.906;2023-03-29T00:28:28;99013.25;;;23.98;34.42
57574;BME280;63722;48.858;21.906;2023-03-29T00:31:06;99014.56;;;24.00;34.63
57574;BME280;63722;48.858;21.906;2023-03-29T00:33:32;99009.75;;;23.97;34.65
57574;BME280;63722;48.858;21.906;2023-03-29T00:35:57;99010.81;;;23.96;34.47
57574;BME280;63722;48.858;21.906;2023-03-29T00:38:22;99010.25;;;23.94;34.47
57574;BME280;63722;48.858;21.906;2023-03-29T00:40:48;99011.88;;;23.95;34.55
57574;BME280;63722;48.858;21.906;2023-03-29T00:43:14;99006.53;;;23.95;34.47
57574;BME280;63722;48.858;21.906;2023-03-29T00:45:40;99006.53;;;23.95;34.49
57574;BME280;63722;48.858;21.906;2023-03-29T00:48:11;99008.16;;;23.96;34.50
57574;BME280;63722;48.858;21.906;2023-03-29T00:50:41;99000.63;;;23.93;34.46
57574;BME280;63722;48.858;21.906;2023-03-29T00:53:15;99001.97;;;23.95;34.50
57574;BME280;63722;48.858;21.906;2023-03-29T00:56:00;99000.38;;;23.94;34.53
57574;BME280;63722;48.858;21.906;2023-03-29T00:58:34;99000.09;;;23.96;34.49
57574;BME280;63722;48.858;21.906;2023-03-29T01:01:16;98994.50;;;23.98;34.45
57574;BME280;63722;48.858;21.906;2023-03-29T01:03:55;99000.91;;;23.97;34.49
57574;BME280;63722;48.858;21.906;2023-03-29T01:06:26;99000.38;;;23.94;34.50
57574;BME280;63722;48.858;21.906;2023-03-29T01:08:56;99003.31;;;23.93;34.42
57574;BME280;63722;48.858;21.906;2023-03-29T01:11:50;99006.00;;;23.98;34.48
57574;BME280;63722;48.858;21.906;2023-03-29T01:16:42;99001.69;;;23.92;34.51
57574;BME280;63722;48.858;21.906;2023-03-29T01:19:12;98997.94;;;23.93;34.52
57574;BME280;63722;48.858;21.906;2023-03-29T01:21:46;98994.19;;;23.94;34.44
57574;BME280;63722;48.858;21.906;2023-03-29T01:27:07;98992.59;;;23.93;34.50
57574;BME280;63722;48.858;21.906;2023-03-29T01:29:44;98992.31;;;23.94;34.43
57574;BME280;63722;48.858;21.906;2023-03-29T01:32:33;98998.19;;;23.91;34.42
57574;BME280;63722;48.858;21.906;2023-03-29T01:37:35;99001.16;;;23.95;34.56
57574;BME280;63722;48.858;21.906;2023-03-29T01:40:02;98997.38;;;23.91;34.49
57574;BME280;63722;48.858;21.906;2023-03-29T01:45:26;99003.06;;;24.00;34.38
57574;BME280;63722;48.858;21.906;2023-03-29T01:48:08;98998.19;;;23.91;34.42
57574;BME280;63722;48.858;21.906;2023-03-29T01:50:51;98999.53;;;23.94;34.43
57574;BME280;63722;48.858;21.906;2023-03-29T01:56:04;98999.00;;;23.92;34.50
57574;BME280;63722;48.858;21.906;2023-03-29T01:58:35;98998.47;;;23.90;34.27
57574;BME280;63722;48.858;21.906;2023-03-29T02:01:04;98998.47;;;23.90;34.39
57574;BME280;63722;48.858;21.906;2023-03-29T02:03:34;99003.81;;;23.90;34.39
57574;BME280;63722;48.858;21.906;2023-03-29T02:06:08;99001.13;;;23.90;34.34
57574;BME280;63722;48.858;21.906;2023-03-29T02:08:35;99008.34;;;23.89;34.18
57574;BME280;63722;48.858;21.906;2023-03-29T02:11:03;99007.28;;;23.90;34.39
57574;BME280;63722;48.858;21.906;2023-03-29T02:13:28;99009.97;;;23.90;34.50
57574;BME280;63722;48.858;21.906;2023-03-29T02:15:54;99007.03;;;23.92;34.33
57574;BME280;63722;48.858;21.906;2023-03-29T02:18:20;98998.41;;;23.85;34.32
57574;BME280;63722;48.858;21.906;2023-03-29T02:20:48;99009.97;;;23.90;34.31
57574;BME280;63722;48.858;21.906;2023-03-29T02:23:22;99009.19;;;23.95;34.32
57574;BME280;63722;48.858;21.906;2023-03-29T02:25:50;99014.00;;;23.93;34.30
57574;BME280;63722;48.858;21.906;2023-03-29T02:28:19;99011.03;;;23.89;34.45
57574;BME280;63722;48.858;21.906;2023-03-29T02:30:56;99014.00;;;23.93;34.35
57574;BME280;63722;48.858;21.906;2023-03-29T02:34:06;99011.06;;;23.94;34.25
57574;BME280;63722;48.858;21.906;2023-03-29T02:36:54;99019.13;;;23.94;34.26
57574;BME280;63722;48.858;21.906;2023-03-29T02:39:24;99025.25;;;23.90;34.31
57574;BME280;63722;48.858;21.906;2023-03-29T02:41:52;99025.25;;;23.90;34.31
57574;BME280;63722;48.858;21.906;2023-03-29T02:44:24;99026.84;;;23.91;34.46
57574;BME280;63722;48.858;21.906;2023-03-29T02:46:55;99025.25;;;23.90;34.31
57574;BME280;63722;48.858;21.906;2023-03-29T02:49:22;99030.59;;;23.90;34.17
57574;BME280;63722;48.858;21.906;2023-03-29T02:51:51;99027.09;;;23.89;34.24
57574;BME280;63722;48.858;21.906;2023-03-29T02:54:20;99030.59;;;23.90;34.30
57574;BME280;63722;48.858;21.906;2023-03-29T02:56:53;99035.97;;;23.90;34.30
57574;BME280;63722;48.858;21.906;2023-03-29T02:59:20;99031.41;;;23.90;34.37
57574;BME280;63722;48.858;21.906;2023-03-29T03:01:48;99042.09;;;23.90;34.24
57574;BME280;63722;48.858;21.906;2023-03-29T03:04:14;99037.56;;;23.91;34.25
57574;BME280;63722;48.858;21.906;2023-03-29T03:06:41;99041.31;;;23.90;34.30
57574;BME280;63722;48.858;21.906;2023-03-29T03:09:06;99050.41;;;23.89;34.27
57574;BME280;63722;48.858;21.906;2023-03-29T03:11:33;99052.03;;;23.90;34.33
57574;BME280;63722;48.858;21.906;2023-03-29T03:13:59;99049.09;;;23.91;34.18
57574;BME280;63722;48.858;21.906;2023-03-29T03:16:24;99050.41;;;23.89;34.08
57574;BME280;63722;48.858;21.906;2023-03-29T03:18:50;99056.56;;;23.89;34.25
57574;BME280;63722;48.858;21.906;2023-03-29T03:21:17;99053.88;;;23.89;34.21
57574;BME280;63722;48.858;21.906;2023-03-29T03:23:43;99058.44;;;23.89;34.30
57574;BME280;63722;48.858;21.906;2023-03-29T03:26:10;99055.75;;;23.89;34.32
57574;BME280;63722;48.858;21.906;2023-03-29T03:28:36;99068.09;;;23.90;34.14
57574;BME280;63722;48.858;21.906;2023-03-29T03:31:01;99071.03;;;23.88;34.20
57574;BME280;63722;48.858;21.906;2023-03-29T03:33:26;99060.47;;;23.82;34.18
57574;BME280;63722;48.858;21.906;2023-03-29T03:35:52;99083.34;;;23.89;34.09
57574;BME280;63722;48.858;21.906;2023-03-29T03:38:21;99081.75;;;23.88;34.11
57574;BME280;63722;48.858;21.906;2023-03-29T03:40:54;99078.81;;;23.90;34.24
57574;BME280;63722;48.858;21.906;2023-03-29T03:43:19;99074.50;;;23.89;34.20
57574;BME280;63722;48.858;21.906;2023-03-29T03:45:45;99073.97;;;23.87;34.34
57574;BME280;63722;48.858;21.906;2023-03-29T03:48:11;99082.00;;;23.87;34.25
57574;BME280;63722;48.858;21.906;2023-03-29T03:50:36;99086.28;;;23.88;34.29
57574;BME280;63722;48.858;21.906;2023-03-29T03:53:02;99090.56;;;23.89;34.33
57574;BME280;63722;48.858;21.906;2023-03-29T03:55:27;99096.97;;;23.88;34.05
57574;BME280;63722;48.858;21.906;2023-03-29T03:57:54;99093.75;;;23.86;34.09
57574;BME280;63722;48.858;21.906;2023-03-29T04:00:20;99102.34;;;23.88;34.22
57574;BME280;63722;48.858;21.906;2023-03-29T04:02:47;99106.09;;;23.87;34.20
57574;BME280;63722;48.858;21.906;2023-03-29T04:05:14;99105.03;;;23.88;34.09
57574;BME280;63722;48.858;21.906;2023-03-29T04:07:39;99102.34;;;23.88;34.22
57574;BME280;63722;48.858;21.906;2023-03-29T04:10:06;99099.66;;;23.88;34.08
57574;BME280;63722;48.858;21.906;2023-03-29T04:12:33;99106.91;;;23.87;34.25
57574;BME280;63722;48.858;21.906;2023-03-29T04:14:59;99107.69;;;23.88;34.16
57574;BME280;63722;48.858;21.906;2023-03-29T04:17:25;99118.41;;;23.88;34.14
57574;BME280;63722;48.858;21.906;2023-03-29T04:19:52;99120.03;;;23.89;34.12
57574;BME280;63722;48.858;21.906;2023-03-29T04:22:17;99114.44;;;23.90;34.00
57574;BME280;63722;48.858;21.906;2023-03-29T04:24:43;99114.72;;;23.94;34.11
57574;BME280;63722;48.858;21.906;2023-03-29T04:27:09;99106.66;;;23.89;33.95
57574;BME280;63722;48.858;21.906;2023-03-29T04:29:35;99116.59;;;23.93;34.11
57574;BME280;63722;48.858;21.906;2023-03-29T04:32:00;99115.28;;;23.96;33.97
57574;BME280;63722;48.858;21.906;2023-03-29T04:34:25;99116.88;;;23.97;33.78
57574;BME280;63722;48.858;21.906;2023-03-29T04:36:51;99121.72;;;24.00;34.04
57574;BME280;63722;48.858;21.906;2023-03-29T04:39:16;99121.22;;;24.03;34.02
57574;BME280;63722;48.858;21.906;2023-03-29T04:41:45;99130.88;;;24.04;33.95
57574;BME280;63722;48.858;21.906;2023-03-29T04:44:11;99130.91;;;24.09;33.85
57574;BME280;63722;48.858;21.906;2023-03-29T04:46:38;99130.13;;;24.14;33.84
57574;BME280;63722;48.858;21.906;2023-03-29T04:49:05;99116.22;;;24.17;33.82
57574;BME280;63722;48.858;21.906;2023-03-29T04:51:31;99133.19;;;24.28;33.75
57574;BME280;63722;48.858;21.906;2023-03-29T04:53:57;99146.13;;;24.36;33.61
57574;BME280;63722;48.858;21.906;2023-03-29T04:56:23;99127.31;;;23.17;23.00
57574;BME280;63722;48.858;21.906;2023-03-29T04:58:49;99133.50;;;23.45;29.41
57574;BME280;63722;48.858;21.906;2023-03-29T05:01:15;99129.03;;;23.77;30.10
57574;BME280;63722;48.858;21.906;2023-03-29T05:03:41;99134.03;;;23.96;30.73
57574;BME280;63722;48.858;21.906;2023-03-29T05:06:08;99136.84;;;24.11;30.81
57574;BME280;63722;48.858;21.906;2023-03-29T05:08:36;99140.44;;;24.27;31.04
57574;BME280;63722;48.858;21.906;2023-03-29T05:11:10;99129.53;;;24.39;30.95
57574;BME280;63722;48.858;21.906;2023-03-29T05:13:36;99141.41;;;24.48;31.13
57574;BME280;63722;48.858;21.906;2023-03-29T05:16:03;99144.63;;;24.56;31.27
57574;BME280;63722;48.858;21.906;2023-03-29T05:18:29;99142.56;;;24.63;31.15
57574;BME280;63722;48.858;21.906;2023-03-29T05:20:55;99147.44;;;24.71;31.22
57574;BME280;63722;48.858;21.906;2023-03-29T05:23:22;99150.44;;;24.80;31.15
57574;BME280;63722;48.858;21.906;2023-03-29T05:25:48;99147.50;;;24.87;31.41
57574;BME280;63722;48.858;21.906;2023-03-29T05:28:14;99147.00;;;24.90;31.27
57574;BME280;63722;48.858;21.906;2023-03-29T05:30:40;99151.31;;;24.96;31.45
57574;BME280;63722;48.858;21.906;2023-03-29T05:33:05;99146.00;;;25.01;31.35
57574;BME280;63722;48.858;21.906;2023-03-29T05:35:31;99139.00;;;25.00;31.57
57574;BME280;63722;48.858;21.906;2023-03-29T05:37:57;99147.63;;;25.07;31.54
57574;BME280;63722;48.858;21.906;2023-03-29T05:40:23;99155.41;;;25.09;31.43
57574;BME280;63722;48.858;21.906;2023-03-29T05:42:52;99155.16;;;25.10;31.51
57574;BME280;63722;48.858;21.906;2023-03-29T05:45:18;99149.75;;;25.05;31.68
57574;BME280;63722;48.858;21.906;2023-03-29T05:47:44;99146.00;;;25.01;32.23
57574;BME280;63722;48.858;21.906;2023-03-29T05:50:10;99150.78;;;24.94;31.94
57574;BME280;63722;48.858;21.906;2023-03-29T05:52:36;99152.47;;;25.10;31.72
57574;BME280;63722;48.858;21.906;2023-03-29T05:55:03;99158.13;;;25.14;32.31
57574;BME280;63722;48.858;21.906;2023-03-29T05:57:29;99160.00;;;25.18;32.50
57574;BME280;63722;48.858;21.906;2023-03-29T05:59:54;99164.84;;;25.22;33.19
57574;BME280;63722;48.858;21.906;2023-03-29T06:02:21;99156.81;;;25.22;33.24
57574;BME280;63722;48.858;21.906;2023-03-29T06:04:46;99154.91;;;25.17;33.13
57574;BME280;63722;48.858;21.906;2023-03-29T06:07:12;99162.94;;;25.12;32.72
57574;BME280;63722;48.858;21.906;2023-03-29T06:09:37;99161.59;;;25.09;32.89
57574;BME280;63722;48.858;21.906;2023-03-29T06:12:04;99159.66;;;24.99;31.46
57574;BME280;63722;48.858;21.906;2023-03-29T06:14:30;99161.00;;;24.97;31.44
57574;BME280;63722;48.858;21.906;2023-03-29T06:16:55;99168.53;;;25.05;31.68
57574;BME280;63722;48.858;21.906;2023-03-29T06:19:21;99169.63;;;25.09;31.53
57574;BME280;63722;48.858;21.906;2023-03-29T06:21:47;99173.38;;;25.08;31.58
57574;BME280;63722;48.858;21.906;2023-03-29T06:24:12;99182.50;;;25.07;31.46
57574;BME280;63722;48.858;21.906;2023-03-29T06:26:38;99183.31;;;25.08;31.11
57574;BME280;63722;48.858;21.906;2023-03-29T06:29:03;99181.47;;;25.13;31.39
57574;BME280;63722;48.858;21.906;2023-03-29T06:31:29;99172.84;;;25.06;31.43
57574;BME280;63722;48.858;21.906;2023-03-29T06:33:55;99186.06;;;25.18;31.20
57574;BME280;63722;48.858;21.906;2023-03-29T06:36:22;99179.59;;;25.19;31.19
57574;BME280;63722;48.858;21.906;2023-03-29T06:38:47;99183.91;;;25.20;31.45
57574;BME280;63722;48.858;21.906;2023-03-29T06:41:13;99186.59;;;25.25;31.68
57574;BME280;63722;48.858;21.906;2023-03-29T06:43:40;99188.53;;;25.30;32.01
57574;BME280;63722;48.858;21.906;2023-03-29T06:46:06;99192.28;;;25.29;31.98
57574;BME280;63722;48.858;21.906;2023-03-29T06:48:38;99191.44;;;25.28;32.21
57574;BME280;63722;48.858;21.906;2023-03-29T06:51:05;99196.00;;;25.28;31.83
57574;BME280;63722;48.858;21.906;2023-03-29T06:53:32;99183.91;;;25.25;31.15
57574;BME280;63722;48.858;21.906;2023-03-29T06:55:57;99190.16;;;25.31;31.75
57574;BME280;63722;48.858;21.906;2023-03-29T06:58:23;99191.50;;;25.33;31.37
57574;BME280;63722;48.858;21.906;2023-03-29T07:00:49;99189.03;;;25.27;31.15
57574;BME280;63722;48.858;21.906;2023-03-29T07:03:14;99189.88;;;25.32;31.17
57574;BME280;63722;48.858;21.906;2023-03-29T07:05:48;99189.34;;;25.35;31.81
57574;BME280;63722;48.858;21.906;2023-03-29T07:08:16;99190.72;;;25.38;32.01
57574;BME280;63722;48.858;21.906;2023-03-29T07:10:45;99192.06;;;25.41;32.24
57574;BME280;63722;48.858;21.906;2023-03-29T07:13:12;99190.47;;;25.40;32.09
57574;BME280;63722;48.858;21.906;2023-03-29T07:15:39;99197.41;;;25.41;32.17
57574;BME280;63722;48.858;21.906;2023-03-29T07:18:05;99193.41;;;25.43;32.08
57574;BME280;63722;48.858;21.906;2023-03-29T07:20:31;99187.22;;;25.37;31.87
57574;BME280;63722;48.858;21.906;2023-03-29T07:22:58;99191.81;;;25.47;32.09
57574;BME280;63722;48.858;21.906;2023-03-29T07:25:24;99185.88;;;25.45;31.94
57574;BME280;63722;48.858;21.906;2023-03-29T07:27:52;99189.66;;;25.49;31.99
57574;BME280;63722;48.858;21.906;2023-03-29T07:30:22;99190.22;;;25.51;31.81
57574;BME280;63722;48.858;21.906;2023-03-29T07:32:49;99195.31;;;25.53;32.34
57574;BME280;63722;48.858;21.906;2023-03-29T07:35:16;99194.50;;;25.52;32.22
57574;BME280;63722;48.858;21.906;2023-03-29T07:37:43;99195.63;;;25.57;32.05
57574;BME280;63722;48.858;21.906;2023-03-29T07:40:14;99192.66;;;25.58;32.32
57574;BME280;63722;48.858;21.906;2023-03-29T07:42:46;99197.78;;;25.60;32.19
57574;BME280;63722;48.858;21.906;2023-03-29T07:45:14;99183.25;;;25.55;32.02
57574;BME280;63722;48.858;21.906;2023-03-29T07:47:44;99195.09;;;25.65;31.94
57574;BME280;63722;48.858;21.906;2023-03-29T07:50:10;99193.47;;;25.64;32.22
57574;BME280;63722;48.858;21.906;2023-03-29T07:52:36;99204.78;;;25.66;32.20
57574;BME280;63722;48.858;21.906;2023-03-29T07:55:07;99202.63;;;25.63;32.37
57574;BME280;63722;48.858;21.906;2023-03-29T07:57:33;99202.88;;;25.66;32.18
57574;BME280;63722;48.858;21.906;2023-03-29T07:59:59;99201.00;;;25.67;31.92
57574;BME280;63722;48.858;21.906;2023-03-29T08:02:24;99201.00;;;25.67;31.98
57574;BME280;63722;48.858;21.906;2023-03-29T08:04:52;99201.81;;;25.67;31.92
57574;BME280;63722;48.858;21.906;2023-03-29T08:07:18;99197.25;;;25.68;31.85
57574;BME280;63722;48.858;21.906;2023-03-29T08:09:44;99197.25;;;25.68;31.98
57574;BME280;63722;48.858;21.906;2023-03-29T08:12:09;99192.38;;;25.54;31.86
57574;BME280;63722;48.858;21.906;2023-03-29T08:14:35;99195.06;;;25.54;31.19
57574;BME280;63722;48.858;21.906;2023-03-29T08:17:00;99194.81;;;25.61;31.60
57574;BME280;63722;48.858;21.906;2023-03-29T08:19:26;99194.00;;;25.55;31.32
57574;BME280;63722;48.858;21.906;2023-03-29T08:21:51;99191.56;;;25.54;31.35
57574;BME280;63722;48.858;21.906;2023-03-29T08:24:18;99188.06;;;25.48;30.65
57574;BME280;63722;48.858;21.906;2023-03-29T08:26:43;99185.94;;;25.50;29.90
57574;BME280;63722;48.858;21.906;2023-03-29T08:29:09;99189.41;;;25.46;29.62
57574;BME280;63722;48.858;21.906;2023-03-29T08:31:34;99192.34;;;25.44;29.86
57574;BME280;63722;48.858;21.906;2023-03-29T08:34:00;99185.34;;;25.43;29.60
57574;BME280;63722;48.858;21.906;2023-03-29T08:36:26;99190.47;;;25.45;29.75
57574;BME280;63722;48.858;21.906;2023-03-29T08:38:51;99189.66;;;25.44;30.06
57574;BME280;63722;48.858;21.906;2023-03-29T08:47:28;99185.34;;;25.43;30.43
57574;BME280;63722;48.858;21.906;2023-03-29T08:49:58;99182.66;;;25.38;29.59
57574;BME280;63722;48.858;21.906;2023-03-29T08:55:24;99185.34;;;25.43;30.21
57574;BME280;63722;48.858;21.906;2023-03-29T08:57:51;99183.19;;;25.40;29.67
57574;BME280;63722;48.858;21.906;2023-03-29T09:00:36;99176.25;;;25.44;29.89
57574;BME280;63722;48.858;21.906;2023-03-29T09:03:08;99175.41;;;25.38;30.05
57574;BME280;63722;48.858;21.906;2023-03-29T09:05:39;99176.47;;;25.37;29.69
57574;BME280;63722;48.858;21.906;2023-03-29T09:08:14;99168.41;;;25.32;30.46
57574;BME280;63722;48.858;21.906;2023-03-29T09:10:46;99174.03;;;25.36;30.32
57574;BME280;63722;48.858;21.906;2023-03-29T09:16:11;99173.53;;;25.39;30.08
57574;BME280;63722;48.858;21.906;2023-03-29T09:18:57;99167.09;;;25.35;29.77
57574;BME280;63722;48.858;21.906;2023-03-29T09:26:59;99163.56;;;25.29;30.52
57574;BME280;63722;48.858;21.906;2023-03-29T09:29:43;99165.47;;;25.34;29.44
57574;BME280;63722;48.858;21.906;2023-03-29T09:32:19;99158.25;;;25.40;29.85
57574;BME280;63722;48.858;21.906;2023-03-29T09:37:39;99159.50;;;25.27;29.54
57574;BME280;63722;48.858;21.906;2023-03-29T09:40:11;99156.31;;;25.30;29.52
57574;BME280;63722;48.858;21.906;2023-03-29T09:42:38;99149.34;;;25.29;29.70
57574;BME280;63722;48.858;21.906;2023-03-29T09:45:05;99149.59;;;25.27;29.29
57574;BME280;63722;48.858;21.906;2023-03-29T09:47:46;99150.41;;;25.33;30.31
57574;BME280;63722;48.858;21.906;2023-03-29T09:50:30;99144.50;;;25.31;29.42
57574;BME280;63722;48.858;21.906;2023-03-29T09:52:56;99149.88;;;25.36;28.28
57574;BME280;63722;48.858;21.906;2023-03-29T09:55:25;99142.84;;;25.19;28.82
57574;BME280;63722;48.858;21.906;2023-03-29T09:57:52;99145.50;;;25.14;28.54
57574;BME280;63722;48.858;21.906;2023-03-29T10:00:18;99139.06;;;25.15;28.83
57574;BME280;63722;48.858;21.906;2023-03-29T10:02:56;99128.84;;;25.07;24.86
57574;BME280;63722;48.858;21.906;2023-03-29T10:05:24;99134.16;;;24.92;26.87
57574;BME280;63722;48.858;21.906;2023-03-29T10:07:52;99130.97;;;25.05;27.05
57574;BME280;63722;48.858;21.906;2023-03-29T10:10:29;99135.59;;;25.20;26.85
57574;BME280;63722;48.858;21.906;2023-03-29T10:12:59;99136.44;;;25.26;27.24
57574;BME280;63722;48.858;21.906;2023-03-29T10:15:28;99128.09;;;25.27;27.24
57574;BME280;63722;48.858;21.906;2023-03-29T10:17:59;99137.81;;;25.33;27.61
57574;BME280;63722;48.858;21.906;2023-03-29T10:20:27;99136.47;;;25.36;27.96
57574;BME280;63722;48.858;21.906;2023-03-29T10:22:57;99134.88;;;25.45;27.62
57574;BME280;63722;48.858;21.906;2023-03-29T10:25:31;99124.13;;;25.45;28.31
57574;BME280;63722;48.858;21.906;2023-03-29T10:28:08;99119.03;;;25.44;28.29
57574;BME280;63722;48.858;21.906;2023-03-29T10:30:36;99124.44;;;25.49;28.37
57574;BME280;63722;48.858;21.906;2023-03-29T10:33:05;99123.34;;;25.50;28.73
57574;BME280;63722;48.858;21.906;2023-03-29T10:35:33;99120.94;;;25.53;28.91
57574;BME280;63722;48.858;21.906;2023-03-29T10:38:03;99100.00;;;25.55;28.95
57574;BME280;63722;48.858;21.906;2023-03-29T10:40:33;99102.41;;;25.57;29.08
57574;BME280;63722;48.858;21.906;2023-03-29T10:43:00;99100.00;;;25.61;29.18
57574;BME280;63722;48.858;21.906;2023-03-29T10:45:36;99098.91;;;25.46;28.62
57574;BME280;63722;48.858;21.906;2023-03-29T10:48:03;99094.06;;;25.43;26.82
57574;BME280;63722;48.858;21.906;2023-03-29T10:50:33;99093.22;;;25.27;24.65
57574;BME280;63722;48.858;21.906;2023-03-29T10:53:00;99084.34;;;25.22;23.31
57574;BME280;63722;48.858;21.906;2023-03-29T10:55:42;99080.56;;;25.17;23.82
57574;BME280;63722;48.858;21.906;2023-03-29T10:58:27;99085.66;;;25.14;23.87
57574;BME280;63722;48.858;21.906;2023-03-29T11:00:56;99088.59;;;25.12;24.29
57574;BME280;63722;48.858;21.906;2023-03-29T11:08:58;99089.22;;;25.35;24.80
57574;BME280;63722;48.858;21.906;2023-03-29T11:11:53;99075.28;;;25.43;24.87
57574;BME280;63722;48.858;21.906;2023-03-29T11:17:14;99072.06;;;25.46;25.65
57574;BME280;63722;48.858;21.906;2023-03-29T11:26:57;99048.44;;;25.48;25.89
57574;BME280;63722;48.858;21.906;2023-03-29T11:29:12;99054.63;;;25.54;26.55
57574;BME280;63722;48.858;21.906;2023-03-29T11:32:00;99052.72;;;25.54;26.74
57574;BME280;63722;48.858;21.906;2023-03-29T11:37:24;99051.41;;;25.52;26.96
57574;BME280;63722;48.858;21.906;2023-03-29T11:40:25;99046.84;;;25.52;27.42
57574;BME280;63722;48.858;21.906;2023-03-29T11:42:54;99046.28;;;25.40;27.68
57574;BME280;63722;48.858;21.906;2023-03-29T11:45:28;99045.22;;;25.46;27.52
57574;BME280;63722;48.858;21.906;2023-03-29T11:47:58;99042.78;;;25.50;27.47
57574;BME280;63722;48.858;21.906;2023-03-29T11:50:40;99040.38;;;25.59;27.42
57574;BME280;63722;48.858;21.906;2023-03-29T11:53:12;99038.25;;;25.55;27.32
57574;BME280;63722;48.858;21.906;2023-03-29T11:55:39;99032.88;;;25.55;27.73
57574;BME280;63722;48.858;21.906;2023-03-29T11:58:12;99035.28;;;25.57;27.81
57574;BME280;63722;48.858;21.906;2023-03-29T12:00:56;99028.84;;;25.63;27.37
57574;BME280;63722;48.858;21.906;2023-03-29T12:11:46;99031.78;;;25.62;28.19
57574;BME280;63722;48.858;21.906;2023-03-29T12:14:19;99021.06;;;25.62;28.21
57574;BME280;63722;48.858;21.906;2023-03-29T12:16:50;99020.78;;;25.58;28.63
57574;BME280;63722;48.858;21.906;2023-03-29T12:19:30;99022.41;;;25.64;28.50
57574;BME280;63722;48.858;21.906;2023-03-29T12:21:57;99012.19;;;25.61;28.61
57574;BME280;63722;48.858;21.906;2023-03-29T12:24:26;99019.72;;;25.64;28.80
57574;BME280;63722;48.858;21.906;2023-03-29T12:35:06;99011.66;;;25.69;29.37
57574;BME280;63722;48.858;21.906;2023-03-29T12:37:43;99006.28;;;25.69;29.23
57574;BME280;63722;48.858;21.906;2023-03-29T12:40:17;99004.66;;;25.63;29.47
57574;BME280;63722;48.858;21.906;2023-03-29T12:42:58;98994.75;;;25.69;29.17
57574;BME280;63722;48.858;21.906;2023-03-29T12:45:32;98997.94;;;25.71;29.39
57574;BME280;63722;48.858;21.906;2023-03-29T12:47:59;99004.94;;;25.67;29.50
57574;BME280;63722;48.858;21.906;2023-03-29T12:50:45;99009.22;;;25.73;29.51
57574;BME280;63722;48.858;21.906;2023-03-29T12:53:17;99006.03;;;25.66;29.89
57574;BME280;63722;48.858;21.906;2023-03-29T13:03:48;98987.19;;;25.76;30.15
57574;BME280;63722;48.858;21.906;2023-03-29T13:09:24;98982.63;;;25.71;30.26
57574;BME280;63722;48.858;21.906;2023-03-29T13:14:45;98981.31;;;25.69;30.31
57574;BME280;63722;48.858;21.906;2023-03-29T13:17:29;98976.47;;;25.71;30.32
57574;BME280;63722;48.858;21.906;2023-03-29T13:23:32;98976.72;;;25.69;30.68
57574;BME280;63722;48.858;21.906;2023-03-29T13:31:36;98971.63;;;25.68;30.69
57574;BME280;63722;48.858;21.906;2023-03-29T13:34:42;98973.78;;;25.66;30.96
57574;BME280;63722;48.858;21.906;2023-03-29T13:40:26;98965.75;;;25.66;30.93
57574;BME280;63722;48.858;21.906;2023-03-29T13:43:08;98964.13;;;25.60;30.97
57574;BME280;63722;48.858;21.906;2023-03-29T13:45:35;98964.13;;;25.54;30.98
57574;BME280;63722;48.858;21.906;2023-03-29T13:48:27;98959.00;;;25.63;31.03
57574;BME280;63722;48.858;21.906;2023-03-29T13:53:36;98952.56;;;25.59;31.02
57574;BME280;63722;48.858;21.906;2023-03-29T13:56:05;98952.31;;;25.55;30.91
57574;BME280;63722;48.858;21.906;2023-03-29T13:58:45;98956.06;;;25.54;31.12
57574;BME280;63722;48.858;21.906;2023-03-29T14:03:46;98951.25;;;25.57;31.46
57574;BME280;63722;48.858;21.906;2023-03-29T14:06:16;98956.06;;;25.54;31.73
57574;BME280;63722;48.858;21.906;2023-03-29T14:08:46;98951.78;;;25.53;31.45
57574;BME280;63722;48.858;21.906;2023-03-29T14:11:27;98947.47;;;25.63;31.03
57574;BME280;63722;48.858;21.906;2023-03-29T14:13:54;98943.72;;;25.53;31.62
57574;BME280;63722;48.858;21.906;2023-03-29T14:16:21;98945.84;;;25.51;31.61
57574;BME280;63722;48.858;21.906;2023-03-29T14:18:51;98940.50;;;25.51;31.31
57574;BME280;63722;48.858;21.906;2023-03-29T14:21:17;98941.59;;;25.50;31.44
57574;BME280;63722;48.858;21.906;2023-03-29T14:23:46;98939.16;;;25.49;31.57
57574;BME280;63722;48.858;21.906;2023-03-29T14:26:20;98945.31;;;25.54;31.54
57574;BME280;63722;48.858;21.906;2023-03-29T14:28:51;98937.28;;;25.49;31.31
57574;BME280;63722;48.858;21.906;2023-03-29T14:33:51;98948.81;;;25.50;31.48
57574;BME280;63722;48.858;21.906;2023-03-29T14:36:18;98943.19;;;25.46;31.28
57574;BME280;63722;48.858;21.906;2023-03-29T14:38:56;98949.38;;;25.52;31.07
57574;BME280;63722;48.858;21.906;2023-03-29T14:41:28;98944.81;;;25.47;31.51
57574;BME280;63722;48.858;21.906;2023-03-29T14:43:55;98945.88;;;25.46;31.57
57574;BME280;63722;48.858;21.906;2023-03-29T14:46:21;98938.88;;;25.45;31.45